Flight Track Log - Related Links

Times and Time Zones

All times are in EDT time to prevent confusion due to time zone crossing. See the UJC7 flight status page for this flight to view local times or setup timezone preferences in your user account.


Time Position Orientation Groundspeed Altitude Reporting Facility
EDT Latitude Longitude Course Direction KTS MPH feet Rate Location/Type
Tue 11:53:57 AM 36.6094 -87.4153 160° South 177 204 1,100  Level Memphis Center
Tue 11:54:33 AM 36.5778 -87.4008 65° Northeast 197 227 3,200 3,316 Climbing Memphis Center
Tue 11:56:29 AM 36.6364 -87.2461 48° Northeast 271 312 9,500 3,170 Climbing Memphis Center
Tue 11:57:29 AM 36.7008 -87.1558 50° Northeast 323 372 12,500 2,400 Climbing Memphis Center
Tue 11:59:29 AM 36.8272 -86.9692 49° Northeast 372 428 16,700 2,033 Climbing Memphis Center
Tue 12:00:29 PM 36.8994 -86.8650 51° Northeast 383 441 18,600 2,000 Climbing Memphis Center
Tue 12:01:29 PM 36.9672 -86.7608 50° Northeast 383 441 20,700 1,900 Climbing Memphis Center
Tue 12:02:29 PM 37.0392 -86.6536 49° Northeast 388 447 22,400 1,650 Climbing Memphis Center
Tue 12:03:29 PM 37.1131 -86.5486 58° Northeast 394 453 24,000 1,481 Climbing Memphis Center
Tue 12:05:11 PM 37.2150 -86.3450 59° Northeast 407 468 26,400 1,444 Climbing Indianapolis Center
Tue 12:06:11 PM 37.2786 -86.2142 60° Northeast 402 463 27,900 1,300 Climbing Indianapolis Center
Tue 12:07:11 PM 37.3333 -86.0933 61° Northeast 397 457 29,000 1,300 Climbing Indianapolis Center
Tue 12:08:11 PM 37.3881 -85.9697 61° Northeast 397 457 30,500 1,000 Climbing Indianapolis Center
Tue 12:09:11 PM 37.4406 -85.8511 59° Northeast 392 451 31,000 250 Climbing Indianapolis Center
Tue 12:10:11 PM 37.4972 -85.7325 42° Northeast 392 451 31,000  Level Indianapolis Center
Tue 12:11:11 PM 37.5803 -85.6378 41° Northeast 392 451 31,000  Level Indianapolis Center
Tue 12:12:11 PM 37.6631 -85.5458 41° Northeast 392 451 31,000  Level Indianapolis Center
Tue 12:13:11 PM 37.7481 -85.4508 43° Northeast 397 457 31,000  Level Indianapolis Center
Tue 12:14:11 PM 37.8289 -85.3556 43° Northeast 402 463 31,000  Level Indianapolis Center
Tue 12:15:11 PM 37.9075 -85.2628 41° Northeast 395 455 31,000  Level Indianapolis Center
Tue 12:16:11 PM 37.9964 -85.1647 42° Northeast 400 460 31,000  Level Indianapolis Center
Tue 12:17:11 PM 38.0792 -85.0714 42° Northeast 400 460 31,000  Level Indianapolis Center
Tue 12:18:11 PM 38.1617 -84.9756 43° Northeast 394 453 31,000  Level Indianapolis Center
Tue 12:19:11 PM 38.2419 -84.8792 42° Northeast 394 453 31,000  Level Indianapolis Center
Tue 12:20:11 PM 38.3264 -84.7828 43° Northeast 399 459 31,000  Level Indianapolis Center
Tue 12:21:11 PM 38.4108 -84.6808 41° Northeast 399 459 31,000  Level Indianapolis Center
Tue 12:22:11 PM 38.4972 -84.5839 43° Northeast 399 459 31,000  Level Indianapolis Center
Tue 12:23:11 PM 38.5817 -84.4842 43° Northeast 399 459 31,000  Level Indianapolis Center
Tue 12:24:11 PM 38.6658 -84.3842 44° Northeast 404 465 31,000  Level Indianapolis Center
Tue 12:25:11 PM 38.7478 -84.2839 42° Northeast 395 455 31,000  Level Indianapolis Center
Tue 12:26:11 PM 38.8317 -84.1861 44° Northeast 395 455 31,000  Level Indianapolis Center
Tue 12:27:11 PM 38.9050 -84.0961 42° Northeast 395 455 31,000  Level Indianapolis Center
Tue 12:28:11 PM 38.9911 -83.9953 43° Northeast 401 461 31,000 -500 Level Indianapolis Center
Tue 12:29:11 PM 39.0706 -83.8994 42° Northeast 396 456 30,000 -1,200 Descending Indianapolis Center
Tue 12:30:11 PM 39.1500 -83.8061 45° Northeast 389 448 28,600 -1,450 Descending Indianapolis Center
Tue 12:31:11 PM 39.2275 -83.7072 42° Northeast 389 448 27,100 -1,500 Descending Indianapolis Center
Tue 12:32:11 PM 39.3047 -83.6161 43° Northeast 384 442 25,600 -1,050 Descending Indianapolis Center
Tue 12:33:11 PM 39.3881 -83.5142 43° Northeast 393 452 25,000 -400 Descending Indianapolis Center
Tue 12:34:11 PM 39.4714 -83.4117 43° Northeast 402 463 24,800 -500 Descending Indianapolis Center
Tue 12:35:11 PM 39.5628 -83.3011 43° Northeast 407 468 24,000 -400 Descending Indianapolis Center
Tue 12:36:11 PM 39.6503 -83.1958 44° Northeast 407 468 24,000 -350 Level Indianapolis Center
Tue 12:37:11 PM 39.7353 -83.0900 44° Northeast 421 484 23,300 -1,150 Descending Indianapolis Center
Tue 12:38:11 PM 39.8203 -82.9839 43° Northeast 421 484 21,700 -1,650 Descending Indianapolis Center
Tue 12:39:11 PM 39.9053 -82.8803 43° Northeast 421 484 20,000 -1,550 Descending Indianapolis Center
Tue 12:40:11 PM 39.9881 -82.7794 44° Northeast 416 479 18,600 -1,300 Descending Indianapolis Center
Tue 12:41:11 PM 40.0664 -82.6808 43° Northeast 397 457 17,400 -1,500 Descending Indianapolis Center
Tue 12:42:11 PM 40.1450 -82.5847 44° Northeast 392 451 15,600 -1,900 Descending Indianapolis Center
Tue 12:43:11 PM 40.2233 -82.4858 46° Northeast 392 451 13,600 -1,900 Descending Indianapolis Center
Tue 12:44:11 PM 40.2953 -82.3894 44° Northeast 385 443 11,800 -1,700 Descending Indianapolis Center
Tue 12:45:11 PM 40.3653 -82.3011 43° Northeast 366 421 10,200 -1,500 Descending Indianapolis Center
Tue 12:46:11 PM 40.4311 -82.2208 45° Northeast 327 376 8,800 -1,350 Descending Indianapolis Center
Tue 12:47:11 PM 40.4906 -82.1433 53° Northeast 310 357 7,500 -1,300 Descending Indianapolis Center
Tue 12:54:15 PM 40.9000 -81.4333 333° Northwest  Level FlightAware Approximate
Tue 12:55:15 PM 40.9901 -81.4951 153° Southeast  Level Estimated
Tue 12:56:15 PM 40.9000 -81.4333 180° South  Level Estimated
Tue 12:57:15 PM 40.9000 -81.4333 333° Northwest  Level FlightAware Approximate
Tue 12:58:15 PM 40.9901 -81.4951 333° Northwest  Level Estimated

Login

Don't have an account? Register now (free) for customized features, flight alerts, and more!